Portada
METAR-TAF:

METAR-TAF

Aeropuertos :

Pittsfield Penstone Municipal Airport

Pittsfield, Illinois, Estados Unidos

latitud: 39-38-20N, longitud: 090-46-42W, altitud: 216 m

Observación

El informe se hizo hace 27 minutos, a las 07:50 UTC
Viento 3 kt del norte
Temperatura 15°C
Humedad 77%
Presión 1024 hPa
Visibilidad: 16.1 km
Cielo despejado

METAR: KPPQ 310750Z AUTO 36003KT 10SM CLR 15/11 A3025 RMK AO2 T01470114

Hora: 03:17 (08:17 UTC)


TAF: falta

Observaciones y pronósticos meteorológicos de más de 4000 aeropuertos (mensajes METAR y TAF).

Los puntos amarillos y rojos representan las estaciones disponibles.

Ponga el ratón en el punto deseado para ver el nombre de la estación.

Haga clic para ver las observaciones y los pronósticos meteorológicos.

Para cambiar el mapa : haga clic en los botones verdes con una cruz de color negro para hacer un zoom, en el botón verde con un guión para alejar o en las flechas verdes para mapas adyacentes.


METAR-TAF: